Time;durP1;ratioP1;P1;durP2;ratioP2;P2;SDS_P1;SDS_P2;PMS_P1;PMS_P2;Temp;Humidity;BMP_temperature;BMP_pressure;BME280_temperature;BME280_humidity;BME280_pressure;Samples;Min_cycle;Max_cycle;Signal;HPM_P1;HPM_P2
2022/08/28 00:00:26;;;;;;;12.55;3.17;;;14.70;99.90;;;;;;5039131;28;20052;-77
2022/08/28 00:02:53;;;;;;;13.32;2.40;;;14.70;99.90;;;;;;5021303;28;20037;-78
2022/08/28 00:05:23;;;;;;;11.07;3.10;;;14.70;99.90;;;;;;5018380;28;20042;-78
2022/08/28 00:11:30;;;;;;;15.77;2.97;;;14.60;99.90;;;;;;5039030;28;20083;-77
2022/08/28 00:13:55;;;;;;;10.82;3.17;;;14.60;99.90;;;;;;5034116;28;20040;-78
2022/08/28 00:16:21;;;;;;;9.25;2.85;;;14.70;99.90;;;;;;5034275;28;20038;-77
2022/08/28 00:18:48;;;;;;;14.32;3.00;;;14.60;99.90;;;;;;5030082;28;20061;-77
2022/08/28 00:21:14;;;;;;;19.95;3.70;;;14.60;99.90;;;;;;5032718;28;20037;-77
2022/08/28 00:23:40;;;;;;;11.77;2.88;;;14.60;99.90;;;;;;5010187;28;20041;-77
2022/08/28 00:26:06;;;;;;;13.50;3.25;;;14.60;99.90;;;;;;5038638;28;20041;-78
2022/08/28 00:28:32;;;;;;;11.88;2.97;;;14.50;99.90;;;;;;5032436;28;20504;-77
2022/08/28 00:30:58;;;;;;;12.85;2.65;;;14.50;99.90;;;;;;5024878;28;20450;-77
2022/08/28 00:33:34;;;;;;;18.10;3.53;;;14.50;99.90;;;;;;5049797;28;20059;-77
2022/08/28 00:36:01;;;;;;;11.57;2.90;;;14.50;99.90;;;;;;5026502;28;20063;-77
2022/08/28 00:38:28;;;;;;;19.95;2.92;;;14.40;99.90;;;;;;5014416;28;20853;-78
2022/08/28 00:40:59;;;;;;;17.35;3.05;;;14.50;99.90;;;;;;5038915;28;20045;-77
2022/08/28 00:43:38;;;;;;;12.70;3.15;;;14.50;99.90;;;;;;5020323;28;20384;-78
2022/08/28 00:46:09;;;;;;;19.92;2.90;;;14.50;99.90;;;;;;5035136;28;20059;-77
2022/08/28 00:48:35;;;;;;;11.75;3.10;;;14.50;99.90;;;;;;5036927;28;20044;-77
2022/08/28 00:53:47;;;;;;;18.52;3.28;;;14.80;99.90;;;;;;5029565;28;20148;-79
2022/08/28 00:56:15;;;;;;;15.25;3.20;;;14.70;99.90;;;;;;5039602;28;20211;-77
2022/08/28 00:58:43;;;;;;;18.70;3.20;;;14.50;99.90;;;;;;5030504;28;20044;-77
2022/08/28 01:01:09;;;;;;;14.85;3.17;;;14.60;99.90;;;;;;5032727;28;20496;-78
2022/08/28 01:03:36;;;;;;;14.13;3.30;;;14.50;99.90;;;;;;5006911;28;20425;-78
2022/08/28 01:06:06;;;;;;;15.70;3.20;;;14.50;99.90;;;;;;5035646;28;20036;-77
2022/08/28 01:08:37;;;;;;;16.02;3.15;;;14.60;99.90;;;;;;5029665;28;20148;-77
2022/08/28 01:11:06;;;;;;;15.15;3.15;;;14.60;99.90;;;;;;5038435;28;20559;-78
2022/08/28 01:13:38;;;;;;;13.20;2.97;;;14.60;99.90;;;;;;5015557;28;20033;-77
2022/08/28 01:16:05;;;;;;;15.30;3.42;;;14.60;99.90;;;;;;5034728;28;20038;-77
2022/08/28 01:18:32;;;;;;;20.52;4.10;;;14.50;99.90;;;;;;5014844;28;20392;-78
2022/08/28 01:21:22;;;;;;;11.40;3.28;;;14.50;99.90;;;;;;5046450;28;20049;-77
2022/08/28 01:24:00;;;;;;;16.88;3.78;;;14.50;99.90;;;;;;5016428;28;20573;-77
2022/08/28 01:26:27;;;;;;;12.98;3.15;;;14.50;99.90;;;;;;5031776;28;20057;-77
2022/08/28 01:28:57;;;;;;;15.73;3.13;;;14.50;99.90;;;;;;5031281;28;20057;-79
2022/08/28 01:31:24;;;;;;;14.65;3.25;;;14.50;99.90;;;;;;5032052;28;20041;-78
2022/08/28 01:33:51;;;;;;;14.77;3.33;;;14.40;99.90;;;;;;5036133;28;20057;-77
2022/08/28 01:36:18;;;;;;;16.15;3.45;;;14.50;99.90;;;;;;5033028;28;20381;-77
2022/08/28 01:38:48;;;;;;;12.05;3.45;;;14.40;99.90;;;;;;5020500;28;20079;-78
2022/08/28 01:41:14;;;;;;;16.33;3.40;;;14.40;99.90;;;;;;5036139;28;20040;-77
2022/08/28 01:43:42;;;;;;;11.63;3.27;;;14.40;99.90;;;;;;5023361;28;20033;-78
2022/08/28 01:46:09;;;;;;;12.63;3.60;;;14.50;99.90;;;;;;5038311;28;20037;-77
2022/08/28 01:48:37;;;;;;;16.65;3.45;;;14.40;99.90;;;;;;5045798;28;20119;-78
2022/08/28 01:51:04;;;;;;;19.55;3.72;;;14.40;99.90;;;;;;5042922;28;20045;-78
2022/08/28 01:57:11;;;;;;;9.95;3.08;;;14.40;99.90;;;;;;5033419;28;20562;-77
2022/08/28 01:59:38;;;;;;;17.42;3.47;;;14.40;99.90;;;;;;5033529;28;20060;-77
2022/08/28 02:02:04;;;;;;;10.52;3.00;;;14.30;99.90;;;;;;5032780;28;20187;-78
2022/08/28 02:04:29;;;;;;;13.75;3.30;;;14.30;99.90;;;;;;5035524;28;20631;-76
2022/08/28 02:06:55;;;;;;;8.27;3.00;;;14.30;99.90;;;;;;5036009;28;20424;-76
2022/08/28 02:09:22;;;;;;;14.73;2.78;;;14.30;99.90;;;;;;5030720;28;20329;-78
2022/08/28 02:11:47;;;;;;;14.48;3.28;;;14.30;99.90;;;;;;5017400;28;20053;-77
2022/08/28 02:14:14;;;;;;;9.90;2.30;;;14.20;99.90;;;;;;5017015;28;20041;-79
2022/08/28 02:16:40;;;;;;;11.50;2.50;;;14.20;99.90;;;;;;5018956;28;20033;-78
2022/08/28 02:19:05;;;;;;;12.38;2.92;;;14.20;99.90;;;;;;5035226;28;20033;-78
2022/08/28 02:21:43;;;;;;;14.18;2.92;;;14.10;99.90;;;;;;5031605;28;20446;-77
2022/08/28 02:24:12;;;;;;;12.07;3.10;;;14.20;99.90;;;;;;5018232;28;20048;-76
2022/08/28 02:26:38;;;;;;;10.10;2.75;;;14.20;99.90;;;;;;5033822;28;20041;-77
2022/08/28 02:29:03;;;;;;;13.05;2.50;;;14.20;99.90;;;;;;5027823;28;20060;-78
2022/08/28 02:31:29;;;;;;;12.82;2.63;;;14.20;99.90;;;;;;5015798;28;20045;-77
2022/08/28 02:33:57;;;;;;;11.00;2.58;;;14.20;99.90;;;;;;5016664;28;20465;-78
2022/08/28 02:36:26;;;;;;;10.05;2.63;;;14.20;99.90;;;;;;5030736;28;20065;-78
2022/08/28 02:38:52;;;;;;;14.25;2.28;;;14.20;99.90;;;;;;5033072;28;20118;-78
2022/08/28 02:41:20;;;;;;;13.18;2.80;;;14.20;99.90;;;;;;5014049;28;20037;-78
2022/08/28 02:43:46;;;;;;;11.50;2.50;;;14.20;99.90;;;;;;5031922;28;20046;-78
2022/08/28 02:46:11;;;;;;;12.90;2.70;;;14.20;99.90;;;;;;5027309;28;20048;-77
2022/08/28 02:48:38;;;;;;;16.45;2.90;;;14.20;99.90;;;;;;5030784;28;20044;-78
2022/08/28 02:51:07;;;;;;;14.02;2.67;;;14.20;99.90;;;;;;5036702;28;20162;-78
2022/08/28 02:53:34;;;;;;;10.07;2.40;;;14.20;99.90;;;;;;5031624;28;20106;-79
2022/08/28 02:56:04;;;;;;;20.00;2.88;;;14.20;99.90;;;;;;5029067;28;20356;-78
2022/08/28 02:58:31;;;;;;;8.77;2.38;;;14.20;99.90;;;;;;5037764;28;20189;-77
2022/08/28 03:01:02;;;;;;;14.85;2.80;;;14.10;99.90;;;;;;5032118;28;20045;-78
2022/08/28 03:03:32;;;;;;;9.25;2.80;;;14.10;99.90;;;;;;5032913;28;20040;-78
2022/08/28 03:06:02;;;;;;;14.25;2.78;;;14.10;99.90;;;;;;5037190;28;20080;-77
2022/08/28 03:08:29;;;;;;;14.93;3.85;;;14.10;99.90;;;;;;5028021;28;20180;-77
2022/08/28 03:10:55;;;;;;;13.60;3.22;;;14.10;99.90;;;;;;5046161;28;20627;-77
2022/08/28 03:13:21;;;;;;;16.25;3.20;;;14.00;99.90;;;;;;5047828;28;20060;-77
2022/08/28 03:15:47;;;;;;;13.43;3.65;;;14.20;99.90;;;;;;5045196;28;20041;-77
2022/08/28 03:18:14;;;;;;;11.20;3.10;;;14.00;99.90;;;;;;5026329;28;20111;-77
2022/08/28 03:20:40;;;;;;;17.52;3.63;;;14.00;99.90;;;;;;5036236;28;20182;-78
2022/08/28 03:23:25;;;;;;;13.05;3.42;;;14.10;99.90;;;;;;5031686;28;20415;-77
2022/08/28 03:26:11;;;;;;;14.68;3.47;;;14.00;99.90;;;;;;5038293;28;20135;-78
2022/08/28 03:28:43;;;;;;;8.65;3.05;;;13.90;99.90;;;;;;5026080;28;20116;-79
2022/08/28 03:31:14;;;;;;;16.35;3.90;;;13.90;99.90;;;;;;5034941;28;20096;-77
2022/08/28 03:33:41;;;;;;;16.23;3.88;;;13.90;99.90;;;;;;5040575;28;20049;-77
2022/08/28 03:36:12;;;;;;;8.93;2.63;;;13.90;99.90;;;;;;5039883;28;20033;-77
2022/08/28 03:38:38;;;;;;;13.30;2.83;;;13.90;99.90;;;;;;5036489;28;20162;-78
2022/08/28 03:41:10;;;;;;;10.98;2.80;;;13.90;99.90;;;;;;5032971;28;20496;-77
2022/08/28 03:43:35;;;;;;;12.45;3.03;;;13.80;99.90;;;;;;5036260;28;20144;-77
2022/08/28 03:46:04;;;;;;;14.60;3.08;;;14.00;99.90;;;;;;5021286;28;20502;-77
2022/08/28 03:48:35;;;;;;;14.70;3.00;;;13.90;99.90;;;;;;5035268;28;20065;-78
2022/08/28 03:51:06;;;;;;;10.63;3.00;;;13.90;99.90;;;;;;5038240;28;20086;-77
2022/08/28 03:53:32;;;;;;;12.25;2.83;;;13.90;99.90;;;;;;5050798;28;20084;-77
2022/08/28 03:55:58;;;;;;;11.27;3.00;;;13.90;99.90;;;;;;5020465;28;20424;-78
2022/08/28 03:58:25;;;;;;;10.43;2.97;;;13.90;99.90;;;;;;5034129;28;20086;-78
2022/08/28 04:00:51;;;;;;;8.95;2.80;;;13.90;99.90;;;;;;5016706;28;20049;-77
2022/08/28 04:03:17;;;;;;;10.90;2.63;;;13.90;99.90;;;;;;5021045;28;20348;-78
2022/08/28 04:05:44;;;;;;;10.35;2.67;;;13.80;99.90;;;;;;5036735;28;20041;-77
2022/08/28 04:08:15;;;;;;;11.35;2.60;;;13.80;99.90;;;;;;5040489;28;20048;-77
2022/08/28 04:10:45;;;;;;;13.35;2.35;;;13.80;99.90;;;;;;5033613;28;20052;-77
2022/08/28 04:13:12;;;;;;;9.32;2.20;;;13.80;99.90;;;;;;5032486;28;20056;-77
2022/08/28 04:15:38;;;;;;;12.30;2.50;;;13.80;99.90;;;;;;5018376;28;20120;-79
2022/08/28 04:18:04;;;;;;;13.80;2.60;;;13.90;99.90;;;;;;5021803;28;20136;-78
2022/08/28 04:20:29;;;;;;;11.38;2.10;;;13.90;99.90;;;;;;5020264;28;20105;-77
2022/08/28 04:22:55;;;;;;;14.13;2.72;;;14.00;99.90;;;;;;5031233;28;20632;-78
2022/08/28 04:25:21;;;;;;;10.25;2.40;;;14.00;99.90;;;;;;5039134;28;21393;-78
2022/08/28 04:27:48;;;;;;;14.63;2.65;;;14.00;99.90;;;;;;5032312;28;20095;-76
2022/08/28 04:30:17;;;;;;;9.68;2.72;;;14.10;99.90;;;;;;5022828;28;20066;-78
2022/08/28 04:32:43;;;;;;;10.60;2.58;;;14.10;99.90;;;;;;5033310;28;20110;-78
2022/08/28 04:35:10;;;;;;;14.82;2.58;;;14.10;99.90;;;;;;5044928;28;20532;-77
2022/08/28 04:37:37;;;;;;;14.10;2.20;;;14.10;99.90;;;;;;5040141;28;20064;-78
2022/08/28 04:40:09;;;;;;;12.25;3.00;;;14.20;99.90;;;;;;5034568;28;20042;-77
2022/08/28 04:42:39;;;;;;;14.05;2.45;;;14.20;99.90;;;;;;5025643;28;20052;-78
2022/08/28 04:45:05;;;;;;;12.57;2.75;;;14.30;99.90;;;;;;5032689;28;20055;-78
2022/08/28 04:47:36;;;;;;;7.45;2.13;;;14.40;99.90;;;;;;5022516;28;21812;-77
2022/08/28 04:50:04;;;;;;;9.55;2.20;;;14.50;99.90;;;;;;5031707;28;20060;-78
2022/08/28 04:52:29;;;;;;;11.93;1.80;;;14.60;99.90;;;;;;5021249;28;20044;-77
2022/08/28 04:54:55;;;;;;;8.75;2.08;;;14.70;99.90;;;;;;5004173;28;20041;-77
2022/08/28 04:57:21;;;;;;;13.68;2.38;;;14.80;99.90;;;;;;5009973;28;20098;-77
2022/08/28 04:59:47;;;;;;;10.23;2.60;;;14.80;99.90;;;;;;5022511;28;20040;-76
2022/08/28 05:02:12;;;;;;;11.35;2.20;;;14.90;99.90;;;;;;5035620;28;20104;-77
2022/08/28 05:04:38;;;;;;;9.75;2.17;;;14.90;99.90;;;;;;5013851;28;20049;-77
2022/08/28 05:07:04;;;;;;;8.88;1.98;;;14.90;99.90;;;;;;5032646;28;20045;-77
2022/08/28 05:09:30;;;;;;;8.80;1.95;;;14.90;99.90;;;;;;5030750;28;20575;-78
2022/08/28 05:12:02;;;;;;;11.63;2.45;;;14.90;99.90;;;;;;5031515;28;20369;-78
2022/08/28 05:14:27;;;;;;;11.30;2.25;;;14.80;99.90;;;;;;5015248;28;20050;-77
2022/08/28 05:16:54;;;;;;;16.10;2.63;;;14.90;99.90;;;;;;5021000;28;20091;-77
2022/08/28 05:19:24;;;;;;;12.88;2.42;;;14.80;99.90;;;;;;5028946;28;20404;-77
2022/08/28 05:21:50;;;;;;;9.82;2.28;;;14.80;99.90;;;;;;5028045;28;20072;-77
2022/08/28 05:24:16;;;;;;;9.40;2.35;;;14.80;99.90;;;;;;5030728;28;22188;-77
2022/08/28 05:26:42;;;;;;;9.82;2.55;;;14.80;99.90;;;;;;5028705;28;20445;-77
2022/08/28 05:29:09;;;;;;;15.98;2.80;;;14.80;99.90;;;;;;5029983;28;20317;-77
2022/08/28 05:31:37;;;;;;;12.50;2.80;;;14.80;99.90;;;;;;5046815;28;20049;-77
2022/08/28 05:34:04;;;;;;;10.35;2.53;;;14.90;99.90;;;;;;5031257;28;20067;-78
2022/08/28 05:36:35;;;;;;;13.27;2.65;;;14.90;99.90;;;;;;5017901;28;20120;-78
2022/08/28 05:39:04;;;;;;;10.68;2.05;;;15.00;99.90;;;;;;5040970;28;20068;-78
2022/08/28 05:41:30;;;;;;;10.50;2.20;;;15.10;99.90;;;;;;5046111;28;20039;-77
2022/08/28 05:43:58;;;;;;;14.90;2.30;;;15.30;99.90;;;;;;5017025;28;20048;-79
2022/08/28 05:46:26;;;;;;;12.38;2.20;;;15.40;99.90;;;;;;5030110;28;20045;-77
2022/08/28 05:48:53;;;;;;;10.20;2.17;;;15.70;99.90;;;;;;5034251;28;20069;-78
2022/08/28 05:51:25;;;;;;;11.70;1.70;;;15.80;99.90;;;;;;5038802;28;20100;-78
2022/08/28 05:53:51;;;;;;;8.23;2.03;;;16.00;99.90;;;;;;5041606;28;20464;-77
2022/08/28 05:56:22;;;;;;;8.45;2.20;;;16.10;99.90;;;;;;5035107;28;20069;-79
2022/08/28 05:58:48;;;;;;;7.20;1.80;;;16.30;99.90;;;;;;5019054;28;20045;-79
2022/08/28 06:01:19;;;;;;;7.63;2.00;;;16.40;99.90;;;;;;5016232;28;20052;-79
2022/08/28 06:03:53;;;;;;;8.02;1.90;;;16.40;99.90;;;;;;5035549;28;20045;-79
2022/08/28 06:06:23;;;;;;;12.85;1.88;;;16.50;99.90;;;;;;5035991;28;20046;-80
2022/08/28 06:08:50;;;;;;;10.00;2.00;;;16.50;99.90;;;;;;5033503;28;20033;-79
2022/08/28 06:11:20;;;;;;;10.25;1.70;;;16.60;99.90;;;;;;5024756;28;20036;-78
2022/08/28 06:13:45;;;;;;;14.50;2.78;;;16.60;99.90;;;;;;5030947;28;20084;-79
2022/08/28 06:16:12;;;;;;;15.07;2.33;;;16.60;99.90;;;;;;5029261;28;20933;-77
2022/08/28 06:18:39;;;;;;;10.32;1.80;;;16.50;99.90;;;;;;5017449;28;20488;-74
2022/08/28 06:21:05;;;;;;;8.20;2.13;;;16.50;99.90;;;;;;5018697;28;20052;-78
2022/08/28 06:23:34;;;;;;;6.78;2.13;;;16.40;99.90;;;;;;5028817;28;20476;-75
2022/08/28 06:26:00;;;;;;;16.85;2.53;;;16.40;99.90;;;;;;5017291;28;20084;-73
2022/08/28 06:28:27;;;;;;;9.70;2.35;;;16.40;99.90;;;;;;5010892;28;20065;-75
2022/08/28 06:30:53;;;;;;;9.68;2.25;;;16.50;99.90;;;;;;5033179;28;20109;-73
2022/08/28 06:33:21;;;;;;;12.82;2.30;;;16.60;99.90;;;;;;5041061;28;21999;-75
2022/08/28 06:35:49;;;;;;;12.07;2.30;;;16.60;99.90;;;;;;5030672;28;20082;-73
2022/08/28 06:38:16;;;;;;;8.75;2.10;;;16.70;99.90;;;;;;5036105;28;20377;-75
2022/08/28 06:40:44;;;;;;;15.75;2.30;;;16.70;99.90;;;;;;5036529;28;20052;-75
2022/08/28 06:43:11;;;;;;;18.40;2.28;;;16.80;99.90;;;;;;5037873;28;20218;-74
2022/08/28 06:45:43;;;;;;;8.35;1.92;;;16.90;99.90;;;;;;5039133;28;20040;-74
2022/08/28 06:48:15;;;;;;;6.05;2.05;;;17.00;99.90;;;;;;5042586;28;21856;-74
2022/08/28 06:50:42;;;;;;;8.60;1.80;;;17.10;99.90;;;;;;5039391;28;20036;-73
2022/08/28 06:53:09;;;;;;;11.18;2.40;;;17.10;99.90;;;;;;5046165;28;20513;-79
2022/08/28 06:55:36;;;;;;;9.77;1.95;;;17.20;99.90;;;;;;5041894;28;20128;-77
2022/08/28 06:58:04;;;;;;;18.92;2.30;;;17.30;99.90;;;;;;5036313;28;20032;-77
2022/08/28 07:00:30;;;;;;;13.50;2.22;;;17.20;99.90;;;;;;5039784;28;20041;-76
2022/08/28 07:02:55;;;;;;;10.35;2.45;;;17.20;99.90;;;;;;5040074;28;20047;-73
2022/08/28 07:05:21;;;;;;;11.55;2.75;;;17.20;99.90;;;;;;5035414;28;20056;-72
2022/08/28 07:07:47;;;;;;;10.48;2.22;;;17.20;99.90;;;;;;5027735;28;20052;-73
2022/08/28 07:10:13;;;;;;;9.57;2.17;;;17.30;99.90;;;;;;5037858;28;20037;-72
2022/08/28 07:12:39;;;;;;;7.10;2.00;;;17.30;99.90;;;;;;5051576;28;20196;-74
2022/08/28 07:15:06;;;;;;;12.15;2.40;;;17.40;99.90;;;;;;5030756;28;20059;-73
2022/08/28 07:17:32;;;;;;;8.75;2.05;;;17.40;99.90;;;;;;5041616;28;20098;-74
2022/08/28 07:19:58;;;;;;;7.30;1.98;;;17.40;99.90;;;;;;5056152;28;20480;-75
2022/08/28 07:22:25;;;;;;;12.57;2.13;;;17.50;99.90;;;;;;5023847;28;20036;-75
2022/08/28 07:24:53;;;;;;;5.55;1.92;;;17.40;99.90;;;;;;5051817;28;20484;-73
2022/08/28 07:27:20;;;;;;;10.05;1.90;;;17.50;99.90;;;;;;5035361;28;20111;-73
2022/08/28 07:29:46;;;;;;;9.98;1.85;;;17.50;99.90;;;;;;5039688;28;20098;-73
2022/08/28 07:32:12;;;;;;;9.70;2.17;;;17.60;99.90;;;;;;5018022;28;20040;-74
2022/08/28 07:34:39;;;;;;;7.18;1.75;;;17.70;99.90;;;;;;5017694;28;20140;-75
2022/08/28 07:37:06;;;;;;;6.97;2.05;;;17.80;99.90;;;;;;5032018;28;20655;-73
2022/08/28 07:39:32;;;;;;;5.60;1.60;;;17.90;99.90;;;;;;5038929;28;20049;-74
2022/08/28 07:41:58;;;;;;;10.82;2.22;;;18.10;99.90;;;;;;5045466;28;20056;-73
2022/08/28 07:47:10;;;;;;;7.77;2.13;;;18.20;99.90;;;;;;5045778;28;20040;-75
2022/08/28 07:49:36;;;;;;;12.95;2.08;;;18.20;99.90;;;;;;5021048;28;20056;-74
2022/08/28 07:52:03;;;;;;;6.32;1.77;;;18.30;99.90;;;;;;5041658;28;20084;-74
2022/08/28 07:54:29;;;;;;;11.82;1.58;;;18.20;99.90;;;;;;5063421;28;20044;-73
2022/08/28 07:56:55;;;;;;;7.78;2.08;;;18.20;99.90;;;;;;5056731;28;20054;-74
2022/08/28 07:59:20;;;;;;;7.43;2.08;;;18.20;99.90;;;;;;5038318;28;20110;-74
2022/08/28 08:01:47;;;;;;;9.70;2.20;;;18.20;99.90;;;;;;5037369;28;20128;-74
2022/08/28 08:04:15;;;;;;;7.88;1.80;;;18.20;99.90;;;;;;5045057;28;20045;-74
2022/08/28 08:06:41;;;;;;;12.38;1.95;;;18.30;99.90;;;;;;5039726;28;20064;-75
2022/08/28 08:09:09;;;;;;;10.75;2.90;;;18.40;99.90;;;;;;5040357;28;20102;-73
2022/08/28 08:11:35;;;;;;;8.15;1.85;;;18.30;99.90;;;;;;5062860;28;20068;-74
2022/08/28 08:14:07;;;;;;;7.07;1.92;;;18.40;99.90;;;;;;5020843;28;20088;-75
2022/08/28 08:16:37;;;;;;;6.57;1.80;;;18.50;99.90;;;;;;5023591;28;20098;-74
2022/08/28 08:19:03;;;;;;;12.75;1.95;;;18.70;99.90;;;;;;5035454;28;20558;-76
2022/08/28 08:21:30;;;;;;;8.80;1.92;;;18.90;99.90;;;;;;5020741;28;20477;-73
2022/08/28 08:23:56;;;;;;;10.18;1.83;;;18.90;99.90;;;;;;5030696;28;20048;-74
2022/08/28 08:26:23;;;;;;;9.35;2.55;;;18.90;99.90;;;;;;5047726;28;20486;-76
2022/08/28 08:28:50;;;;;;;6.85;2.10;;;18.80;99.90;;;;;;5044889;28;20098;-74
2022/08/28 08:31:20;;;;;;;7.35;1.92;;;18.90;99.90;;;;;;5039680;28;20049;-74
2022/08/28 08:33:48;;;;;;;7.50;1.90;;;18.80;99.90;;;;;;5013332;28;20439;-74
2022/08/28 08:36:16;;;;;;;9.25;1.98;;;18.80;99.90;;;;;;5029358;28;20123;-74
2022/08/28 08:38:43;;;;;;;8.35;2.25;;;18.80;99.90;;;;;;5036771;28;20579;-74
2022/08/28 08:41:27;;;;;;;9.55;2.05;;;18.50;99.90;;;;;;5041276;28;20045;-74
2022/08/28 08:43:59;;;;;;;9.88;1.90;;;18.40;99.90;;;;;;5035343;28;20037;-74
2022/08/28 08:46:45;;;;;;;10.30;1.92;;;18.50;99.90;;;;;;5014521;28;20053;-74
2022/08/28 08:49:20;;;;;;;8.32;2.05;;;18.70;99.90;;;;;;5036764;28;20048;-74
2022/08/28 08:51:53;;;;;;;7.65;2.20;;;19.00;99.90;;;;;;5031436;28;20045;-75
2022/08/28 08:54:20;;;;;;;4.93;1.50;;;19.10;99.90;;;;;;5036983;28;20053;-76
2022/08/28 08:56:47;;;;;;;4.32;1.58;;;19.10;99.90;;;;;;5046927;28;20041;-77
2022/08/28 08:59:17;;;;;;;9.20;1.67;;;19.20;99.90;;;;;;5031540;28;20045;-76
2022/08/28 09:02:08;;;;;;;9.60;1.73;;;19.40;99.90;;;;;;5032539;28;20415;-77
2022/08/28 09:04:45;;;;;;;7.82;1.85;;;19.30;99.90;;;;;;5033132;28;20143;-75
2022/08/28 09:07:20;;;;;;;8.02;1.40;;;19.30;99.90;;;;;;5020446;28;20053;-76
2022/08/28 09:09:45;;;;;;;;;;;19.30;99.90;;;;;;5031604;28;20041;-76
2022/08/28 09:12:17;;;;;;;8.50;2.10;;;19.30;99.90;;;;;;5029656;28;21556;-76
2022/08/28 09:15:15;;;;;;;8.13;1.70;;;19.30;99.90;;;;;;5019701;28;20049;-76
2022/08/28 09:17:49;;;;;;;10.18;2.00;;;19.30;99.90;;;;;;5024530;28;20037;-76
2022/08/28 09:20:22;;;;;;;4.13;1.58;;;19.40;99.90;;;;;;5032694;28;20049;-76
2022/08/28 09:22:49;;;;;;;4.85;1.90;;;19.50;99.90;;;;;;5031743;28;20040;-76
2022/08/28 09:25:43;;;;;;;6.75;2.10;;;19.50;99.90;;;;;;5021258;28;20113;-76
2022/08/28 09:28:14;;;;;;;7.15;1.85;;;19.70;99.90;;;;;;5022739;28;20049;-77
2022/08/28 09:30:42;;;;;;;11.00;2.03;;;19.80;99.90;;;;;;5022373;28;20500;-76
2022/08/28 09:33:07;;;;;;;5.63;1.88;;;19.90;99.90;;;;;;5028991;28;20076;-75
2022/08/28 09:35:38;;;;;;;6.57;2.10;;;19.90;99.90;;;;;;5042023;28;20041;-75
2022/08/28 09:38:23;;;;;;;7.22;1.92;;;19.60;99.90;;;;;;5040102;28;20434;-75
2022/08/28 09:43:45;;;;;;;5.90;2.00;;;19.70;99.90;;;;;;5040150;28;20051;-76
2022/08/28 09:46:17;;;;;;;8.93;2.00;;;19.70;99.90;;;;;;5037167;28;20037;-78
2022/08/28 09:48:51;;;;;;;9.40;2.22;;;20.00;99.90;;;;;;5021785;28;20037;-76
2022/08/28 09:51:19;;;;;;;6.13;1.83;;;20.00;99.90;;;;;;5042853;28;20136;-76
2022/08/28 09:54:22;;;;;;;11.25;2.47;;;19.90;99.90;;;;;;5035920;28;20037;-76
2022/08/28 09:56:49;;;;;;;11.40;1.98;;;20.00;99.90;;;;;;5039546;28;20084;-77
2022/08/28 09:59:21;;;;;;;9.05;1.85;;;20.00;99.90;;;;;;5035068;28;20101;-77
2022/08/28 10:01:58;;;;;;;7.47;1.80;;;20.10;99.90;;;;;;5035847;28;20041;-76
2022/08/28 10:05:01;;;;;;;4.65;1.50;;;20.20;99.90;;;;;;5036725;28;20121;-77
2022/08/28 10:07:56;;;;;;;8.05;2.25;;;19.90;99.90;;;;;;5037611;28;20080;-77
2022/08/28 10:10:46;;;;;;;9.70;1.92;;;19.80;99.90;;;;;;5056560;28;20053;-75
2022/08/28 10:13:18;;;;;;;6.50;1.63;;;19.70;99.90;;;;;;5034509;28;20133;-76
2022/08/28 10:16:08;;;;;;;10.40;2.55;;;19.70;99.90;;;;;;5039622;28;20061;-75
2022/08/28 10:19:27;;;;;;;6.72;1.80;;;20.00;99.90;;;;;;5037354;28;20049;-76
2022/08/28 10:22:30;;;;;;;12.68;2.33;;;20.10;99.90;;;;;;5042330;28;20056;-78
2022/08/28 10:25:08;;;;;;;6.45;1.90;;;20.00;99.90;;;;;;5054330;28;20041;-76
2022/08/28 10:28:09;;;;;;;5.43;2.00;;;19.80;99.90;;;;;;5056152;28;20052;-76
2022/08/28 10:30:43;;;;;;;6.07;1.75;;;19.70;99.90;;;;;;4988482;28;20450;-77
2022/08/28 10:33:41;;;;;;;4.35;1.70;;;19.80;99.90;;;;;;4982575;28;20437;-78
2022/08/28 10:36:17;;;;;;;6.88;1.98;;;19.90;99.90;;;;;;4959933;28;20493;-79
2022/08/28 10:38:47;;;;;;;8.05;2.08;;;19.90;99.90;;;;;;4989253;28;20047;-77
2022/08/28 10:41:25;;;;;;;8.98;2.10;;;20.20;99.90;;;;;;4973943;28;20632;-76
2022/08/28 10:43:53;;;;;;;6.75;2.03;;;20.20;99.90;;;;;;4982259;28;20161;-76
2022/08/28 10:46:19;;;;;;;9.70;2.00;;;20.50;99.90;;;;;;4965106;28;20152;-77
2022/08/28 10:49:15;;;;;;;10.52;1.92;;;21.00;99.90;;;;;;4964930;28;20117;-77
2022/08/28 10:51:47;;;;;;;6.88;2.10;;;21.00;99.90;;;;;;4949767;28;20381;-76
2022/08/28 10:54:20;;;;;;;6.65;1.90;;;21.10;99.90;;;;;;4970178;28;20077;-73
2022/08/28 10:56:57;;;;;;;8.85;1.80;;;20.80;99.90;;;;;;4967092;28;20035;-74
2022/08/28 10:59:26;;;;;;;7.03;1.88;;;20.50;99.90;;;;;;4952069;28;20094;-74
2022/08/28 11:01:52;;;;;;;9.75;1.77;;;20.40;99.90;;;;;;4962931;28;20047;-73
2022/08/28 11:04:20;;;;;;;8.57;1.70;;;20.60;99.90;;;;;;4971349;28;20049;-73
2022/08/28 11:06:48;;;;;;;4.20;1.80;;;20.90;99.90;;;;;;4975762;28;20061;-73
2022/08/28 11:09:27;;;;;;;5.57;1.98;;;21.00;99.90;;;;;;5024365;28;20120;-74
2022/08/28 11:11:56;;;;;;;7.07;2.17;;;21.40;99.60;;;;;;5019161;28;20132;-74
2022/08/28 11:14:24;;;;;;;5.05;1.65;;;21.70;99.90;;;;;;5032728;28;20045;-74
2022/08/28 11:16:53;;;;;;;8.77;2.20;;;21.20;99.70;;;;;;5035347;28;20073;-75
2022/08/28 11:19:47;;;;;;;6.05;1.67;;;21.10;99.90;;;;;;5015331;28;20158;-77
2022/08/28 11:22:22;;;;;;;8.18;1.65;;;21.30;99.90;;;;;;5015834;28;20049;-77
2022/08/28 11:24:52;;;;;;;;;;;21.40;99.60;;;;;;5032541;28;20050;-78
2022/08/28 11:27:24;;;;;;;7.25;2.05;;;21.40;99.60;;;;;;5010682;28;19959;-78
2022/08/28 11:30:05;;;;;;;5.40;2.08;;;21.70;98.80;;;;;;5012891;28;20060;-78
2022/08/28 11:32:30;;;;;;;4.80;1.83;;;21.40;98.80;;;;;;5025524;28;20125;-78
2022/08/28 11:35:03;;;;;;;5.88;1.90;;;21.60;99.50;;;;;;5026117;28;20470;-79
2022/08/28 11:37:41;;;;;;;5.85;1.77;;;21.20;99.50;;;;;;5043186;28;20040;-78
2022/08/28 11:40:28;;;;;;;7.07;1.85;;;21.50;99.10;;;;;;5048544;28;20444;-78
2022/08/28 11:43:14;;;;;;;12.30;2.08;;;21.70;99.50;;;;;;5040556;28;20041;-77
2022/08/28 11:45:45;;;;;;;6.50;1.70;;;21.80;99.50;;;;;;5045922;28;20041;-77
2022/08/28 11:48:34;;;;;;;7.93;1.75;;;21.50;99.40;;;;;;5040084;28;20044;-76
2022/08/28 11:51:06;;;;;;;5.78;1.90;;;21.50;99.10;;;;;;5030807;28;20049;-77
2022/08/28 11:53:57;;;;;;;8.63;2.08;;;21.00;99.40;;;;;;5049631;28;20403;-76
2022/08/28 11:56:26;;;;;;;7.13;2.03;;;21.20;99.70;;;;;;5032685;28;20066;-78
2022/08/28 11:59:24;;;;;;;6.07;2.05;;;21.60;98.90;;;;;;5043487;28;20119;-78
2022/08/28 12:01:50;;;;;;;3.03;1.55;;;22.00;99.10;;;;;;5037142;28;20487;-77
2022/08/28 12:04:20;;;;;;;8.07;2.20;;;21.90;99.20;;;;;;5041969;28;20397;-78
2022/08/28 12:07:04;;;;;;;8.65;2.10;;;21.60;99.20;;;;;;5035028;28;20053;-77
2022/08/28 12:09:45;;;;;;;7.13;2.10;;;21.20;99.70;;;;;;5059661;28;20143;-77
2022/08/28 12:12:20;;;;;;;4.97;1.50;;;21.50;99.30;;;;;;5045883;28;20749;-78
2022/08/28 12:14:46;;;;;;;5.55;1.77;;;21.70;98.00;;;;;;5022963;28;20049;-78
2022/08/28 12:17:20;;;;;;;4.03;1.75;;;21.70;98.40;;;;;;5039507;28;20622;-77
2022/08/28 12:20:17;;;;;;;4.35;1.65;;;22.20;98.30;;;;;;5039880;28;20053;-77
2022/08/28 12:22:52;;;;;;;7.68;1.80;;;22.30;97.50;;;;;;5040602;28;20041;-78
2022/08/28 12:25:55;;;;;;;5.18;1.83;;;22.50;97.20;;;;;;5057004;28;20045;-78
2022/08/28 12:28:27;;;;;;;6.35;1.55;;;22.50;97.10;;;;;;4971129;28;20049;-79
2022/08/28 12:32:10;;;;;;;5.35;1.85;;;22.60;97.30;;;;;;4977007;28;20049;-78
2022/08/28 12:34:41;;;;;;;6.15;1.77;;;22.30;97.90;;;;;;4992429;28;20058;-77
2022/08/28 12:37:37;;;;;;;6.40;1.70;;;22.40;97.90;;;;;;4984845;28;20105;-76
2022/08/28 12:40:08;;;;;;;6.45;1.80;;;22.50;97.60;;;;;;4984967;28;20588;-78
2022/08/28 12:42:39;;;;;;;9.88;2.00;;;22.20;98.00;;;;;;4980350;28;20062;-77
2022/08/28 12:45:07;;;;;;;8.40;1.58;;;22.20;98.20;;;;;;4971253;28;20054;-79
2022/08/28 12:47:36;;;;;;;5.20;1.60;;;22.10;98.30;;;;;;4993211;28;20117;-79
2022/08/28 12:50:24;;;;;;;5.53;1.50;;;22.00;98.50;;;;;;4992983;28;20834;-79
2022/08/28 12:52:56;;;;;;;7.68;1.70;;;21.90;98.90;;;;;;5005405;28;20139;-78
2022/08/28 12:55:22;;;;;;;6.97;1.75;;;21.40;99.30;;;;;;4992013;28;20049;-76
2022/08/28 12:57:49;;;;;;;10.63;1.75;;;21.60;99.50;;;;;;4989477;28;20052;-77
2022/08/28 13:00:24;;;;;;;9.30;2.08;;;21.60;99.40;;;;;;4972687;28;20045;-77
2022/08/28 13:02:53;;;;;;;10.25;1.90;;;21.50;99.90;;;;;;4983057;28;20128;-77
2022/08/28 13:05:39;;;;;;;3.53;1.30;;;21.80;99.90;;;;;;5058999;28;20448;-77
2022/08/28 13:08:08;;;;;;;5.28;1.30;;;21.70;99.80;;;;;;5043754;28;20080;-79
2022/08/28 13:10:40;;;;;;;5.47;1.67;;;21.70;99.90;;;;;;5047342;28;20103;-76
2022/08/28 13:13:40;;;;;;;6.70;1.30;;;21.50;99.90;;;;;;5023900;28;20041;-78
2022/08/28 13:16:09;;;;;;;4.22;1.13;;;21.40;99.90;;;;;;4958269;28;20042;-75
2022/08/28 13:18:42;;;;;;;4.93;1.35;;;21.10;99.90;;;;;;4956024;28;20386;-76